Flight Track Log - Related Links

Times and Time Zones

All times are in EDT time to prevent confusion due to time zone crossing. See the EIN592 flight status page for this flight to view local times or setup timezone preferences in your user account.

Time Position Orientation Groundspeed Altitude Reporting Facility
EDT Latitude Longitude Course Direction KTS MPH feet Rate Location/Type
Fri 01:35:32 AM 53.4220 -6.2920 273° West 153 176 1,000  Level FlightAware ADS-B
Fri 01:35:57 AM 53.4240 -6.3230 276° West 166 191 1,900 1,745 Climbing FlightAware ADS-B
Fri 01:36:27 AM 53.4270 -6.3660 277° West 194 223 2,600 1,200 Climbing FlightAware ADS-B
Fri 01:36:52 AM 53.4300 -6.4040 278° West 222 255 3,000 1,350 Climbing FlightAware ADS-B
Fri 01:37:07 AM 53.4310 -6.4330 273° West 237 273 3,500 2,400 Climbing FlightAware ADS-B
Fri 01:37:37 AM 53.4220 -6.4860 254° West 250 288 4,800 2,667 Climbing FlightAware ADS-B
Fri 01:37:52 AM 53.4090 -6.4990 211° Southwest 249 287 5,500 2,400 Climbing FlightAware ADS-B
Fri 01:38:02 AM 53.3970 -6.5040 194° South 251 289 5,800 -1,400 Climbing FlightAware ADS-B
Fri 01:38:22 AM 53.3714 -6.4970 194° South 1 1 4,800 1,800 Descending FlightAware UK
Fri 01:38:32 AM 53.3600 -6.4960 194° South 274 315 6,700 2,600 Climbing FlightAware ADS-B
Fri 01:38:52 AM 53.3334 -6.4876 194° South 1 1 6,100 2,800 Descending FlightAware UK
Fri 01:39:02 AM 53.3220 -6.4850 194° South 281 323 8,100 6,240 Climbing FlightAware ADS-B
Fri 01:39:17 AM 53.3050 -6.4830 194° South 284 327 8,700 -1,500 Climbing FlightAware ADS-B
Fri 01:39:22 AM 53.2945 -6.4790 194° South 1 1 7,600 -2,118 Descending FlightAware UK
Fri 01:39:34 AM 53.2785 -6.4819 194° South 1 1 8,100 2,400 Climbing FlightAware UK
Fri 01:39:52 AM 53.2538 -6.4854 185° South 286 329 8,800 2,667 Climbing FlightAware UK
Fri 01:40:10 AM 53.2297 -6.4846 179° South 288 331 9,700 2,667 Climbing FlightAware UK
Fri 01:40:28 AM 53.2063 -6.4733 164° South 294 338 10,400 1,667 Climbing FlightAware UK
Fri 01:40:46 AM 53.1818 -6.4661 170° South 314 361 10,700 3,353 Climbing FlightAware UK
Fri 01:41:02 AM 53.1740 -6.4630 168° South 314 361 12,300 1,000 Climbing FlightAware ADS-B
Fri 01:41:04 AM 53.1555 -6.4571 168° South 332 382 11,000 -2,400 Descending FlightAware UK
Fri 01:41:22 AM 53.1276 -6.4484 168° South 344 396 11,500 2,167 Climbing FlightAware UK
Fri 01:41:40 AM 53.0989 -6.4403 170° South 346 398 12,300 6,240 Climbing FlightAware UK
Fri 01:41:47 AM 53.0890 -6.4370 170° South 348 400 14,100 2,250 Climbing FlightAware ADS-B
Fri 01:42:04 AM 53.0608 -6.4285 170° South 350 403 13,200 -343 Descending FlightAware UK
Fri 01:42:22 AM 53.0319 -6.4195 169° South 358 412 13,900 6,522 Climbing FlightAware UK
Fri 01:42:27 AM 53.0250 -6.4170 169° South 354 407 15,700 3,000 Climbing FlightAware ADS-B
Fri 01:42:46 AM 52.9934 -6.4073 169° South 360 414 15,100  Descending FlightAware UK
Fri 01:43:04 AM 52.9645 -6.3985 170° South 364 419 15,700 5,308 Climbing FlightAware UK
Fri 01:43:12 AM 52.9550 -6.3950 170° South 355 409 17,400 2,000 Climbing FlightAware ADS-B
Fri 01:43:28 AM 52.9260 -6.3857 170° South 368 423 16,500 -882 Descending FlightAware UK
Fri 01:43:46 AM 52.8964 -6.3764 169° South 372 428 16,900 5,250 Climbing FlightAware UK
Fri 01:43:52 AM 52.8890 -6.3750 169° South 370 426 18,600 1,750 Climbing FlightAware ADS-B
Fri 01:44:10 AM 52.8554 -6.3642 169° South 376 433 17,600 -500 Descending FlightAware UK
Fri 01:44:28 AM 52.8246 -6.3544 169° South 382 440 18,300 6,545 Climbing FlightAware UK
Fri 01:44:32 AM 52.8210 -6.3550 169° South 374 430 20,000 2,000 Climbing FlightAware ADS-B
Fri 01:44:52 AM 52.7831 -6.3494 169° South 384 442 19,100 -632 Descending FlightAware UK
Fri 01:45:10 AM 52.7518 -6.3451 175° South 388 447 19,600 5,760 Climbing FlightAware UK
Fri 01:45:17 AM 52.7410 -6.3440 175° South 380 437 21,500 2,250 Climbing FlightAware ADS-B
Fri 01:45:34 AM 52.7097 -6.3395 175° South 392 451 20,500 -857 Descending FlightAware UK
Fri 01:45:52 AM 52.6780 -6.3353 175° South 396 456 21,000 5,739 Climbing FlightAware UK
Fri 01:45:57 AM 52.6720 -6.3350 175° South 384 442 22,700 2,000 Climbing FlightAware ADS-B
Fri 01:46:16 AM 52.6356 -6.3296 175° South 400 460 21,800 -811 Descending FlightAware UK
Fri 01:46:34 AM 52.6037 -6.3252 175° South 404 465 22,200 5,077 Climbing FlightAware UK
Fri 01:46:42 AM 52.5920 -6.3240 175° South 388 447 24,000 1,500 Climbing FlightAware ADS-B
Fri 01:46:58 AM 52.5606 -6.3194 175° South 406 467 22,800 -1,412 Descending FlightAware UK
Fri 01:47:16 AM 52.5274 -6.3149 175° South 408 470 23,200 6,000 Climbing FlightAware UK
Fri 01:47:17 AM 52.5310 -6.3160 175° South 397 457 24,700 1,333 Climbing FlightAware ADS-B
Fri 01:47:34 AM 52.4945 -6.3105 175° South 414 476 23,600 -1,029 Descending FlightAware UK
Fri 01:47:52 AM 52.4612 -6.3061 175° South 416 479 24,100 4,364 Climbing FlightAware UK
Fri 01:48:07 AM 52.4400 -6.3040 175° South 402 463 26,000 1,400 Climbing FlightAware ADS-B
Fri 01:48:22 AM 52.4057 -6.2987 175° South 420 483 24,800 -1,273 Descending FlightAware UK
Fri 01:48:40 AM 52.3718 -6.2941 175° South 424 488 25,300 5,280 Climbing FlightAware UK
Fri 01:48:47 AM 52.3650 -6.2940 175° South 405 466 27,000 1,500 Climbing FlightAware ADS-B
Fri 01:49:04 AM 52.3274 -6.2883 175° South 426 490 25,900 -1,200 Descending FlightAware UK
Fri 01:49:22 AM 52.2933 -6.2838 175° South 430 495 26,300 5,217 Climbing FlightAware UK
Fri 01:49:27 AM 52.2860 -6.2830 175° South 408 470 27,900 1,000 Climbing FlightAware ADS-B
Fri 01:49:46 AM 52.2482 -6.2779 175° South 432 497 26,700 -1,459 Descending FlightAware UK
Fri 01:50:04 AM 52.2140 -6.2735 175° South 436 502 27,000 4,846 Climbing FlightAware UK
Fri 01:50:12 AM 52.2000 -6.2720 175° South 414 476 28,800 1,750 Climbing FlightAware ADS-B
Fri 01:50:28 AM 52.1679 -6.2672 175° South 436 502 27,700 -1,588 Descending FlightAware UK
Fri 01:50:46 AM 52.1332 -6.2627 175° South 444 511 27,900 4,750 Climbing FlightAware UK
Fri 01:50:52 AM 52.1260 -6.2620 175° South 417 480 29,600 1,250 Climbing FlightAware ADS-B
Fri 01:51:10 AM 52.0872 -6.2565 175° South 444 511 28,400 -1,667 Descending FlightAware UK
Fri 01:51:28 AM 52.0524 -6.2519 175° South 448 516 28,600 4,000 Climbing FlightAware UK
Fri 01:51:37 AM 52.0400 -6.2510 175° South 425 489 30,200 750 Climbing FlightAware ADS-B
Fri 01:51:52 AM 52.0058 -6.2459 175° South 452 520 28,900 -1,636 Descending FlightAware UK
Fri 01:52:10 AM 51.9705 -6.2412 175° South 450 518 29,300 4,800 Climbing FlightAware UK
Fri 01:52:17 AM 51.9620 -6.2400 175° South 427 491 30,900 1,250 Climbing FlightAware ADS-B
Fri 01:52:34 AM 51.9233 -6.2293 175° South 450 518 29,800 -1,543 Descending FlightAware UK
Fri 01:52:52 AM 51.8885 -6.2172 168° South 448 516 30,000 3,857 Climbing FlightAware UK
Fri 01:53:02 AM 51.8710 -6.2110 168° South 432 497 31,600 600 Climbing FlightAware ADS-B
Fri 01:53:22 AM 51.8298 -6.1965 168° South 450 518 30,300 750 Descending FlightAware UK
Fri 01:53:42 AM 51.7920 -6.1840 168° South 438 504 32,100 833 Climbing FlightAware ADS-B
Fri 01:53:58 AM 51.7585 -6.1719 168° South 458 527 30,800 -882 Descending FlightAware UK
Fri 01:54:16 AM 51.7230 -6.1596 168° South 452 520 31,600 5,750 Climbing FlightAware UK
Fri 01:54:22 AM 51.7190 -6.1570 168° South 429 494 33,100 500 Climbing FlightAware ADS-B
Fri 01:54:40 AM 51.6782 -6.1348 168° South 450 518 31,800 -2,000 Descending FlightAware UK
Fri 01:54:58 AM 51.6437 -6.1163 162° South 448 516 31,900 3,778 Climbing FlightAware UK
Fri 01:55:07 AM 51.6300 -6.1090 162° South 441 507 33,500 500 Climbing FlightAware ADS-B
Fri 01:55:22 AM 51.5974 -6.0913 162° South 454 522 32,100 -2,000 Descending FlightAware UK
Fri 01:55:40 AM 51.5625 -6.0729 162° South 456 525 32,400 4,800 Climbing FlightAware UK
Fri 01:55:47 AM 51.5520 -6.0680 162° South 441 507 34,100 1,000 Climbing FlightAware ADS-B
Fri 01:56:04 AM 51.5160 -6.0485 162° South 454 522 32,800 -1,714 Descending FlightAware UK
Fri 01:56:22 AM 51.4810 -6.0301 162° South 452 520 33,100 4,286 Climbing FlightAware UK
Fri 01:56:32 AM 51.4640 -6.0210 162° South 442 509 34,800 800 Climbing FlightAware ADS-B
Fri 01:56:52 AM 51.4228 -5.9995 162° South 448 516 33,500 300 Descending FlightAware UK
Fri 01:57:12 AM 51.3890 -5.9820 162° South 449 517 35,000  Climbing FlightAware ADS-B
Fri 01:57:28 AM 51.3521 -5.9623 162° South 460 529 33,500 -2,824 Descending FlightAware UK
Fri 01:57:46 AM 51.3166 -5.9438 162° South 462 532 33,400 3,750 Descending FlightAware UK
Fri 01:57:52 AM 51.3100 -5.9410 162° South 453 521 35,000 250 Climbing FlightAware ADS-B
Fri 01:58:10 AM 51.2681 -5.9184 162° South 462 532 33,500 -2,500 Descending FlightAware UK
Fri 01:58:28 AM 51.2321 -5.8995 162° South 464 534 33,500 3,333 Level FlightAware UK
Fri 01:58:37 AM 51.2210 -5.8940 162° South 452 520 35,000  Climbing FlightAware ADS-B
Fri 01:58:52 AM 51.1844 -5.8746 162° South 462 532 33,500 -2,727 Descending FlightAware UK
Fri 01:59:10 AM 51.1489 -5.8561 162° South 458 527 33,500 3,600 Level FlightAware UK
Fri 01:59:17 AM 51.1400 -5.8520 162° South 448 516 35,000  Climbing FlightAware ADS-B
Fri 01:59:34 AM 51.1018 -5.8319 162° South 458 527 33,500 -2,743 Descending FlightAware UK
Fri 01:59:52 AM 51.0665 -5.8136 162° South 456 525 33,400 3,214 Descending FlightAware UK
Fri 02:00:02 AM 51.0500 -5.8060 162° South 444 511 35,000  Climbing FlightAware ADS-B
Fri 02:00:22 AM 51.0080 -5.7833 162° South 454 522 33,400 -150 Descending FlightAware UK
Fri 02:00:42 AM 50.9740 -5.7660 162° South 443 510 34,900  Climbing FlightAware ADS-B
Fri 02:00:58 AM 50.9379 -5.7469 162° South 454 522 33,400 -2,647 Descending FlightAware UK
Fri 02:01:16 AM 50.9028 -5.7288 162° South 456 525 33,400 4,000 Level FlightAware UK
Fri 02:01:22 AM 50.8970 -5.7260 162° South 444 511 35,000  Climbing FlightAware ADS-B
Fri 02:01:40 AM 50.8561 -5.7047 162° South 458 527 33,400 -2,667 Descending FlightAware UK
Fri 02:01:58 AM 50.8210 -5.6867 162° South 456 525 33,400 3,556 Level FlightAware UK
Fri 02:02:07 AM 50.8080 -5.6810 162° South 445 512 35,000  Climbing FlightAware ADS-B
Fri 02:02:22 AM 50.7740 -5.6629 162° South 456 525 33,400 -2,727 Descending FlightAware UK
Fri 02:02:40 AM 50.7388 -5.6450 162° South 458 527 33,500 3,840 Climbing FlightAware UK
Fri 02:02:47 AM 50.7310 -5.6410 162° South 446 513 35,000  Climbing FlightAware ADS-B
Fri 02:03:04 AM 50.6918 -5.6210 162° South 458 527 33,500 -2,571 Descending FlightAware UK
Fri 02:03:22 AM 50.6564 -5.6032 162° South 458 527 33,500 3,913 Level FlightAware UK
Fri 02:03:27 AM 50.6560 -5.6030 162° South 446 513 35,000  Climbing FlightAware ADS-B
Fri 02:03:46 AM 50.6093 -5.5790 162° South 458 527 33,500 -2,432 Descending FlightAware UK
Fri 02:04:04 AM 50.5738 -5.5610 162° South 460 529 33,500 3,462 Level FlightAware UK
Fri 02:04:12 AM 50.5610 -5.5550 162° South 449 517 35,000  Climbing FlightAware ADS-B
Fri 02:04:28 AM 50.5264 -5.5369 162° South 460 529 33,500  Descending FlightAware UK
Fri 02:04:52 AM 50.4810 -5.5150 162° South 449 517 35,000  Climbing FlightAware ADS-B
Fri 02:05:22 AM 50.4194 -5.4834 162° South 460 529 33,500  Descending FlightAware UK
Fri 02:05:37 AM 50.3970 -5.4730 162° South 450 518 35,000  Climbing FlightAware ADS-B
Fri 02:05:58 AM 50.3478 -5.4479 162° South 460 529 33,500  Descending FlightAware UK
Fri 02:06:17 AM 50.3140 -5.4310 162° South 452 520 35,000  Climbing FlightAware ADS-B
Fri 02:06:34 AM 50.2762 -5.4120 162° South 462 532 33,500 -2,195 Descending FlightAware UK
Fri 02:06:58 AM 50.2284 -5.3877 162° South 462 532 33,500 3,214 Level FlightAware UK
Fri 02:07:02 AM 50.2230 -5.3850 162° South 454 522 35,000  Climbing FlightAware ADS-B
Fri 02:07:22 AM 50.1806 -5.3635 162° South 460 529 33,500 -2,368 Descending FlightAware UK
Fri 02:07:40 AM 50.1446 -5.3455 162° South 462 532 33,500 4,500 Level FlightAware UK
Fri 02:07:42 AM 50.1460 -5.3470 162° South 454 522 35,000  Climbing FlightAware ADS-B
Fri 02:07:58 AM 50.1086 -5.3276 162° South 462 532 33,500  Descending FlightAware UK
Fri 02:08:27 AM 50.0570 -5.3020 162° South 454 522 35,000  Climbing FlightAware ADS-B
Fri 02:08:46 AM 50.0126 -5.2805 162° South 462 532 33,500  Descending FlightAware UK
Fri 02:09:07 AM 49.9770 -5.2630 162° South 452 520 35,000  Climbing FlightAware ADS-B
Fri 02:09:22 AM 49.9406 -5.2453 162° South 462 532 33,500  Descending FlightAware UK
Fri 02:09:47 AM 49.8960 -5.2240 162° South 451 519 35,000  Climbing FlightAware ADS-B
Fri 02:10:10 AM 49.8448 -5.1984 162° South 462 532 33,500 -2,195 Descending FlightAware UK
Fri 02:10:28 AM 49.8090 -5.1809 163° South 462 532 33,500 4,091 Level FlightAware UK
Fri 02:10:32 AM 49.8030 -5.1780 163° South 450 518 35,000  Climbing FlightAware ADS-B
Fri 02:10:52 AM 49.7609 -5.1574 163° South 460 529 33,500  Descending FlightAware UK
Fri 02:11:12 AM 49.7240 -5.1390 163° South 450 518 35,000  Climbing FlightAware ADS-B
Fri 02:11:28 AM 49.6896 -5.1223 163° South 460 529 33,500 -2,647 Descending FlightAware UK
Fri 02:11:46 AM 49.6540 -5.1047 162° South 460 529 33,500 3,750 Level FlightAware UK
Fri 02:11:52 AM 49.6450 -5.1010 162° South 451 519 35,000 -250 Climbing FlightAware ADS-B
Fri 02:12:10 AM 49.6065 -5.0815 162° South 460 529 33,400 -2,667 Descending FlightAware UK
Fri 02:12:28 AM 49.5707 -5.0643 163° South 460 529 33,400 3,556 Level FlightAware UK
Fri 02:12:37 AM 49.5570 -5.0580 163° South 452 520 35,000  Climbing FlightAware ADS-B
Fri 02:12:52 AM 49.5229 -5.0413 163° South 462 532 33,400 -2,909 Descending FlightAware UK
Fri 02:13:10 AM 49.4870 -5.0240 163° South 462 532 33,400 3,840 Level FlightAware UK
Fri 02:13:17 AM 49.4790 -5.0210 163° South 453 521 35,000  Climbing FlightAware ADS-B
Fri 02:13:34 AM 49.4391 -5.0009 163° South 462 532 33,400 -2,341 Descending FlightAware UK
Fri 02:13:58 AM 49.3905 -4.9812 165° South 462 532 33,400 3,429 Level FlightAware UK
Fri 02:14:02 AM 49.3840 -4.9800 165° South 453 521 35,000 250 Climbing FlightAware ADS-B
Fri 02:14:22 AM 49.3410 -4.9680 165° South 462 532 33,500  Descending FlightAware UK
Fri 02:14:42 AM 49.3060 -4.9620 165° South 454 522 35,000  Climbing FlightAware ADS-B
Fri 02:14:58 AM 49.2659 -4.9529 165° South 462 532 33,500 -2,647 Descending FlightAware UK
Fri 02:15:16 AM 49.2285 -4.9447 172° South 464 534 33,500 3,750 Level FlightAware UK
Fri 02:15:22 AM 49.2210 -4.9430 172° South 454 522 35,000  Climbing FlightAware ADS-B
Fri 02:15:40 AM 49.1787 -4.9337 172° South 464 534 33,500 -2,500 Descending FlightAware UK
Fri 02:15:58 AM 49.1413 -4.9256 172° South 462 532 33,500 3,333 Level FlightAware UK
Fri 02:16:07 AM 49.1290 -4.9230 172° South 452 520 35,000  Climbing FlightAware ADS-B
Fri 02:16:22 AM 49.0916 -4.9149 172° South 462 532 33,500 -2,727 Descending FlightAware UK
Fri 02:16:40 AM 49.0544 -4.9073 172° South 462 532 33,500 3,600 Level FlightAware UK
Fri 02:16:47 AM 49.0500 -4.9070 172° South 451 519 35,000  Climbing FlightAware ADS-B
Fri 02:17:04 AM 49.0047 -4.8970 172° South 462 532 33,500 -2,571 Descending FlightAware UK
Fri 02:17:22 AM 48.9677 -4.8891 172° South 462 532 33,500 3,913 Level FlightAware UK
Fri 02:17:27 AM 48.9660 -4.8890 172° South 449 517 35,000  Climbing FlightAware ADS-B
Fri 02:17:46 AM 48.9183 -4.8785 172° South 460 529 33,500 -2,432 Descending FlightAware UK
Fri 02:18:04 AM 48.8813 -4.8704 172° South 460 529 33,500 3,462 Level FlightAware UK
Fri 02:18:12 AM 48.8680 -4.8680 172° South 448 516 35,000  Climbing FlightAware ADS-B
Fri 02:18:28 AM 48.8320 -4.8599 172° South 460 529 33,500 -2,647 Descending FlightAware UK
Fri 02:18:46 AM 48.7951 -4.8519 172° South 460 529 33,500 3,750 Level FlightAware UK
Fri 02:18:52 AM 48.7860 -4.8500 172° South 447 514 35,000  Climbing FlightAware ADS-B
Fri 02:19:10 AM 48.7460 -4.8415 172° South 460 529 33,500 -2,500 Descending FlightAware UK
Fri 02:19:28 AM 48.7092 -4.8337 172° South 458 527 33,500 3,333 Level FlightAware UK
Fri 02:19:37 AM 48.6960 -4.8320 172° South 447 514 35,000  Climbing FlightAware ADS-B
Fri 02:19:52 AM 48.6602 -4.8235 172° South 460 529 33,500 -2,727 Descending FlightAware UK
Fri 02:20:10 AM 48.6235 -4.8158 172° South 458 527 33,500 3,600 Level FlightAware UK
Fri 02:20:17 AM 48.6110 -4.8140 172° South 448 516 35,000 -250 Climbing FlightAware ADS-B
Fri 02:20:34 AM 48.5744 -4.8057 172° South 458 527 33,400 -2,743 Descending FlightAware UK
Fri 02:20:52 AM 48.5375 -4.7983 172° South 458 527 33,400 3,429 Level FlightAware UK
Fri 02:21:02 AM 48.5200 -4.7950 172° South 448 516 35,000  Climbing FlightAware ADS-B
Fri 02:21:22 AM 48.4760 -4.7863 172° South 458 527 33,400  Descending FlightAware UK
Fri 02:21:42 AM 48.4380 -4.7790 172° South 451 519 35,000  Climbing FlightAware ADS-B
Fri 02:21:58 AM 48.4020 -4.7715 172° South 460 529 33,400 -2,824 Descending FlightAware UK
Fri 02:22:16 AM 48.3648 -4.7639 172° South 460 529 33,400 4,000 Level FlightAware UK
Fri 02:22:22 AM 48.3550 -4.7620 172° South 452 520 35,000  Climbing FlightAware ADS-B
Fri 02:22:46 AM 48.3027 -4.7509 172° South 460 529 33,400  Descending FlightAware UK
Fri 02:23:07 AM 48.2650 -4.7430 172° South 454 522 35,000 167 Climbing FlightAware ADS-B
Fri 02:23:22 AM 48.2279 -4.7357 172° South 460 529 33,500  Descending FlightAware UK
Fri 02:23:47 AM 48.1800 -4.7260 172° South 455 524 35,000 1,286 Climbing FlightAware ADS-B
Fri 02:24:32 AM 48.0840 -4.7070 172° South 456 525 35,000  Level FlightAware ADS-B
Fri 02:25:12 AM 48.0020 -4.6900 172° South 457 526 35,000  Level FlightAware ADS-B
Fri 02:25:52 AM 47.9170 -4.6730 172° South 456 525 35,000  Level FlightAware ADS-B
Fri 02:26:37 AM 47.8260 -4.6540 172° South 455 524 35,000  Level FlightAware ADS-B
Fri 02:27:17 AM 47.7420 -4.6360 172° South 454 522 35,000  Level FlightAware ADS-B
Fri 02:28:02 AM 47.6470 -4.6160 172° South 454 522 35,000  Level FlightAware ADS-B
Fri 02:28:42 AM 47.5630 -4.5990 172° South 454 522 35,000  Level FlightAware ADS-B
Fri 02:29:22 AM 47.4820 -4.5820 172° South 455 524 35,000  Level FlightAware ADS-B
Fri 02:30:07 AM 47.3880 -4.5640 173° South 453 521 35,000  Level FlightAware ADS-B
Fri 02:30:47 AM 47.3040 -4.5470 172° South 453 521 35,000  Level FlightAware ADS-B
Fri 02:31:32 AM 47.2110 -4.5290 173° South 454 522 35,000  Level FlightAware ADS-B
Fri 02:32:12 AM 47.1270 -4.5120 172° South 455 524 35,000  Level FlightAware ADS-B
Fri 02:32:52 AM 47.0440 -4.4960 173° South 453 521 35,000  Level FlightAware ADS-B
Fri 02:33:37 AM 46.9510 -4.4780 172° South 453 521 35,000  Level FlightAware ADS-B
Fri 02:34:17 AM 46.8690 -4.4620 172° South 455 524 35,000  Level FlightAware ADS-B
Fri 02:35:02 AM 46.7750 -4.4430 172° South 454 522 35,000  Level FlightAware ADS-B
Fri 02:35:42 AM 46.6880 -4.4260 172° South 456 525 35,000  Level FlightAware ADS-B
Fri 02:36:22 AM 46.6050 -4.4100 172° South 456 525 35,000  Level FlightAware ADS-B
Fri 02:37:07 AM 46.5140 -4.3930 173° South 459 528 35,000  Level FlightAware ADS-B
Fri 02:37:47 AM 46.4290 -4.3760 172° South 460 529 35,000  Level FlightAware ADS-B
Fri 02:38:32 AM 46.3350 -4.3580 172° South 459 528 35,000  Level FlightAware ADS-B
Fri 02:39:12 AM 46.2480 -4.3410 172° South 456 525 35,000  Level FlightAware ADS-B
Fri 02:39:52 AM 46.1640 -4.3260 173° South 454 522 35,000  Level FlightAware ADS-B
Fri 02:40:37 AM 46.0720 -4.3080 172° South 453 521 35,000  Level FlightAware ADS-B
Fri 02:41:17 AM 45.9910 -4.2930 173° South 452 520 35,000  Level FlightAware ADS-B
Fri 02:41:57 AM 45.9070 -4.2770 172° South 451 519 35,000  Level FlightAware ADS-B
Fri 02:42:42 AM 45.8110 -4.2590 173° South 452 520 35,000  Level FlightAware ADS-B
Fri 02:43:22 AM 45.7300 -4.2430 172° South 452 520 35,000  Level FlightAware ADS-B
Fri 02:44:07 AM 45.6370 -4.2260 173° South 453 521 35,000  Level FlightAware ADS-B
Fri 02:44:47 AM 45.5620 -4.2130 173° South 455 524 35,000  Level FlightAware ADS-B
Fri 02:45:27 AM 45.4720 -4.1960 172° South 456 525 35,000  Level FlightAware ADS-B
Fri 02:46:12 AM 45.3840 -4.1780 172° South 456 525 35,000  Level FlightAware ADS-B
Fri 02:46:52 AM 45.2900 -4.1620 173° South 456 525 35,000  Level FlightAware ADS-B
Fri 02:47:32 AM 45.2180 -4.1470 172° South 456 525 35,000  Level FlightAware ADS-B
Fri 02:48:07 AM 45.1380 -4.1340 173° South 457 526 35,000  Level FlightAware ADS-B
Fri 02:48:52 AM 45.0450 -4.1170 173° South 457 526 35,000  Level FlightAware ADS-B
Fri 02:49:37 AM 44.9600 -4.1000 172° South 457 526 35,000  Level FlightAware ADS-B
Fri 02:50:17 AM 44.8890 -4.0860 172° South 457 526 35,000  Level FlightAware ADS-B
Fri 02:51:07 AM 44.8000 -4.0680 172° South 457 526 35,000  Level FlightAware ADS-B
Fri 02:51:47 AM 44.7290 -4.0540 172° South 457 526 35,000  Level FlightAware ADS-B
Fri 02:52:27 AM 44.6570 -4.0400 172° South 457 526 35,000  Level FlightAware ADS-B
Fri 02:53:07 AM 44.5860 -4.0260 172° South 457 526 35,000  Level FlightAware ADS-B
Fri 02:53:47 AM 44.5150 -4.0120 172° South 457 526 35,000  Level FlightAware ADS-B
Fri 02:54:37 AM 44.4260 -3.9940 172° South 457 526 35,000  Level FlightAware ADS-B
Fri 02:55:32 AM 44.2060 -3.9750 176° South 457 526 35,000  Level FlightAware ADS-B
Fri 02:56:12 AM 44.1330 -3.9670 176° South 458 527 35,000  Level FlightAware ADS-B
Fri 02:56:52 AM 44.0610 -3.9580 175° South 458 527 35,000  Level FlightAware ADS-B
Fri 02:57:32 AM 43.9890 -3.9490 175° South 458 527 35,000  Level FlightAware ADS-B
Fri 02:58:12 AM 43.9170 -3.9410 175° South 458 527 35,000  Level FlightAware ADS-B
Fri 02:59:02 AM 43.8270 -3.9300 175° South 458 527 35,000  Level FlightAware ADS-B
Fri 02:59:42 AM 43.6850 -3.9250 179° South 458 527 35,000  Level FlightAware ADS-B
Fri 03:00:27 AM 43.5990 -3.9170 176° South 458 527 35,000  Level FlightAware ADS-B
Fri 03:01:07 AM 43.5270 -3.9100 176° South 458 527 35,000  Level FlightAware ADS-B
Fri 03:01:47 AM 43.4550 -3.9030 176° South 458 527 35,000  Level FlightAware ADS-B
Fri 03:02:27 AM 43.3830 -3.8960 176° South 458 527 35,000  Level FlightAware ADS-B
Fri 03:03:07 AM 43.3110 -3.8890 176° South 458 527 35,000  Level FlightAware ADS-B
Fri 03:03:57 AM 43.2210 -3.8800 176° South 458 527 35,000  Level FlightAware ADS-B
Fri 03:04:37 AM 43.1490 -3.8730 176° South 458 527 35,000  Level FlightAware ADS-B
Fri 03:05:17 AM 43.0770 -3.8670 177° South 458 527 35,000  Level FlightAware ADS-B
Fri 03:05:57 AM 43.0060 -3.8600 176° South 458 527 35,000 -71 Level FlightAware ADS-B
Fri 03:06:42 AM 42.8100 -3.9970 207° Southwest 453 521 34,900 -1,200 Descending FlightAware ADS-B
Fri 03:07:27 AM 42.7120 -4.0110 186° South 445 512 33,200 -1,341 Descending FlightAware ADS-B
Fri 03:08:07 AM 42.6270 -4.0230 186° South 460 529 33,000 -150 Descending FlightAware ADS-B
Fri 03:08:47 AM 42.5480 -4.0340 186° South 459 528 33,000  Level FlightAware ADS-B
Fri 03:09:32 AM 42.4490 -4.0490 186° South 459 528 33,000  Level FlightAware ADS-B
Fri 03:10:12 AM 42.3640 -4.0610 186° South 461 531 33,000 -141 Level FlightAware ADS-B
Fri 03:10:57 AM 42.2690 -4.0750 186° South 458 527 32,800 -988 Descending FlightAware ADS-B
Fri 03:11:37 AM 42.1870 -4.0860 186° South 445 512 31,600 -1,950 Descending FlightAware ADS-B
Fri 03:12:17 AM 42.1060 -4.0980 186° South 427 491 30,200 -2,100 Descending FlightAware ADS-B
Fri 03:12:57 AM 42.0350 -4.1080 186° South 415 478 28,800 -2,682 Descending FlightAware ADS-B
Fri 03:13:42 AM 41.9440 -4.1190 185° South 414 476 26,400 -2,541 Descending FlightAware ADS-B
Fri 03:14:22 AM 41.8710 -4.1270 185° South 394 453 25,200 -1,976 Descending FlightAware ADS-B
Fri 03:15:07 AM 41.7900 -4.1360 185° South 378 435 23,600 -2,259 Descending FlightAware ADS-B
Fri 03:15:47 AM 41.7210 -4.1440 185° South 373 429 22,000 -2,118 Descending FlightAware ADS-B
Fri 03:16:32 AM 41.6460 -4.1520 185° South 357 411 20,600 -1,906 Descending FlightAware ADS-B
Fri 03:17:12 AM 41.5840 -4.1590 185° South 347 399 19,300 -1,200 Descending FlightAware ADS-B
Fri 03:17:52 AM 41.5170 -4.1640 183° South 355 409 19,000 -565 Descending FlightAware ADS-B
Fri 03:18:37 AM 41.4490 -4.1600 177° South 354 407 18,500 -750 Descending FlightAware ADS-B
Fri 03:19:12 AM 41.3870 -4.1560 177° South 378 435 18,000 -1,129 Descending FlightAware ADS-B
Fri 03:20:02 AM 41.2920 -4.1480 176° South 375 432 16,900 -1,600 Descending FlightAware ADS-B
Fri 03:20:27 AM 41.2550 -4.1210 151° Southeast 379 436 16,000 -2,057 Descending FlightAware ADS-B
Fri 03:21:12 AM 41.2010 -4.0430 133° Southeast 367 422 14,500 -2,118 Descending FlightAware ADS-B
Fri 03:21:52 AM 41.1550 -3.9780 133° Southeast 358 412 13,000 -2,175 Descending FlightAware ADS-B
Fri 03:22:32 AM 41.1110 -3.9160 133° Southeast 351 404 11,600 -1,129 Descending FlightAware ADS-B
Fri 03:23:17 AM 41.0640 -3.8510 134° Southeast 307 353 11,400 -141 Descending FlightAware ADS-B
Fri 03:23:57 AM 41.0280 -3.8000 133° Southeast 274 315 11,400  Level FlightAware ADS-B
Fri 03:24:42 AM 40.9920 -3.7420 129° Southeast 255 293 11,400  Level FlightAware ADS-B
Fri 03:25:17 AM 40.9680 -3.7050 131° Southeast 256 295 11,400 -600 Level FlightAware ADS-B
Fri 03:26:02 AM 40.9310 -3.6460 130° Southeast 256 295 10,600 -667 Descending FlightAware ADS-B
Fri 03:26:47 AM 40.8950 -3.5980 135° Southeast 257 296 10,400 -200 Descending FlightAware ADS-B
Fri 03:27:02 AM 40.8800 -3.5840 145° Southeast 240 276 10,400  Level FlightAware ADS-B
Fri 03:27:12 AM 40.8680 -3.5800 166° South 228 262 10,400 -1,114 Level FlightAware ADS-B
Fri 03:28:12 AM 40.8150 -3.5770 178° South 199 229 9,100 -1,620 Descending FlightAware ADS-B
Fri 03:28:52 AM 40.7740 -3.5760 179° South 206 237 7,700 -1,938 Descending FlightAware ADS-B
Fri 03:29:17 AM 40.7510 -3.5760 180° South 207 238 7,000 -1,527 Descending FlightAware ADS-B
Fri 03:29:47 AM 40.7230 -3.5760 180° South 200 230 6,300 -1,309 Descending FlightAware ADS-B
Fri 03:30:12 AM 40.6990 -3.5760 180° South 206 237 5,800 -1,108 Descending FlightAware ADS-B
Fri 03:30:52 AM 40.6620 -3.5760 180° South 192 221 5,100 -1,040 Descending FlightAware ADS-B
Fri 03:31:27 AM 40.6310 -3.5750 179° South 193 222 4,500 -1,080 Descending FlightAware ADS-B
Fri 03:31:42 AM 40.6180 -3.5750 180° South 187 215 4,200 -900 Descending FlightAware ADS-B
Fri 03:32:07 AM 40.5990 -3.5750 180° South 177 204 3,900 -873 Descending FlightAware ADS-B
Fri 03:32:37 AM 40.5760 -3.5750 180° South 158 182 3,400 -873 Descending FlightAware ADS-B
Fri 03:33:02 AM 40.5570 -3.5750 180° South 146 168 3,100 -771 Descending FlightAware ADS-B
Fri 03:33:47 AM 40.5290 -3.5750 180° South 144 166 2,500 -800 Descending FlightAware ADS-B

Login

Don't have an account? Register now (free) for customized features, flight alerts, and more!